Time;durP1;ratioP1;P1;durP2;ratioP2;P2;SDS_P1;SDS_P2;PMS_P1;PMS_P2;Temp;Humidity;BMP_temperature;BMP_pressure;BME280_temperature;BME280_humidity;BME280_pressure;Samples;Min_cycle;Max_cycle;Signal;HPM_P1;HPM_P2
2022/11/27 00:00:00;;;;;;;1.5;1.5;;;;;;;5.8;100.0;102330;;;;
2022/11/27 00:01:07;;;;;;;1.5;1.5;;;;;;;5.8;100.0;102330;;;;
2022/11/27 00:02:00;;;;;;;1.5;1.5;;;;;;;5.8;100.0;102330;;;;
2022/11/27 00:03:00;;;;;;;1.5;1.5;;;;;;;5.8;100.0;102330;;;;
2022/11/27 00:04:00;;;;;;;1.5;1.5;;;;;;;5.7;100.0;102320;;;;
2022/11/27 00:05:00;;;;;;;1.5;1.5;;;;;;;5.7;100.0;102320;;;;
2022/11/27 00:06:00;;;;;;;1.5;1.5;;;;;;;5.8;100.0;102320;;;;
2022/11/27 00:07:00;;;;;;;1.5;1.5;;;;;;;5.8;100.0;102320;;;;
2022/11/27 00:08:00;;;;;;;1.5;1.5;;;;;;;5.8;100.0;102320;;;;
2022/11/27 00:09:01;;;;;;;1.5;1.5;;;;;;;5.8;100.0;102320;;;;
2022/11/27 00:10:00;;;;;;;1.5;1.5;;;;;;;5.8;100.0;102320;;;;
2022/11/27 00:11:04;;;;;;;1.5;1.5;;;;;;;5.8;100.0;102320;;;;
2022/11/27 00:12:00;;;;;;;1.5;1.5;;;;;;;5.7;100.0;102320;;;;
2022/11/27 00:13:00;;;;;;;1.5;1.5;;;;;;;5.7;100.0;102320;;;;
2022/11/27 00:14:00;;;;;;;1.5;1.5;;;;;;;5.8;100.0;102310;;;;
2022/11/27 00:15:00;;;;;;;1.5;1.5;;;;;;;5.8;100.0;102310;;;;
2022/11/27 00:16:00;;;;;;;1.5;1.5;;;;;;;5.7;100.0;102310;;;;
2022/11/27 00:17:00;;;;;;;1.7;1.7;;;;;;;5.7;100.0;102310;;;;
2022/11/27 00:18:00;;;;;;;1.7;1.7;;;;;;;5.7;100.0;102310;;;;
2022/11/27 00:19:00;;;;;;;1.7;1.7;;;;;;;5.7;100.0;102310;;;;
2022/11/27 00:20:00;;;;;;;1.7;1.7;;;;;;;5.7;100.0;102300;;;;
2022/11/27 00:21:04;;;;;;;1.7;1.7;;;;;;;5.7;100.0;102300;;;;
2022/11/27 00:22:00;;;;;;;1.7;1.7;;;;;;;5.7;100.0;102290;;;;
2022/11/27 00:23:00;;;;;;;1.7;1.7;;;;;;;5.7;100.0;102290;;;;
2022/11/27 00:24:01;;;;;;;1.7;1.7;;;;;;;5.7;100.0;102290;;;;
2022/11/27 00:25:00;;;;;;;1.7;1.7;;;;;;;5.7;100.0;102290;;;;
2022/11/27 00:26:00;;;;;;;1.7;1.7;;;;;;;5.6;100.0;102290;;;;
2022/11/27 00:27:00;;;;;;;1.7;1.7;;;;;;;5.6;100.0;102290;;;;
2022/11/27 00:28:00;;;;;;;1.7;1.7;;;;;;;5.6;100.0;102290;;;;
2022/11/27 00:29:00;;;;;;;1.7;1.7;;;;;;;5.6;100.0;102290;;;;
2022/11/27 00:30:00;;;;;;;1.7;1.7;;;;;;;5.6;100.0;102290;;;;
2022/11/27 00:31:01;;;;;;;1.7;1.7;;;;;;;5.6;100.0;102290;;;;
2022/11/27 00:32:00;;;;;;;1.7;1.7;;;;;;;5.6;100.0;102290;;;;
2022/11/27 00:33:00;;;;;;;1.7;1.7;;;;;;;5.6;100.0;102290;;;;
2022/11/27 00:34:03;;;;;;;1.7;1.7;;;;;;;5.5;100.0;102290;;;;
2022/11/27 00:35:00;;;;;;;1.7;1.7;;;;;;;5.5;100.0;102290;;;;
2022/11/27 00:36:02;;;;;;;1.7;1.7;;;;;;;5.5;100.0;102290;;;;
2022/11/27 00:37:00;;;;;;;1.9;1.9;;;;;;;5.5;100.0;102290;;;;
2022/11/27 00:38:00;;;;;;;1.9;1.9;;;;;;;5.5;100.0;102280;;;;
2022/11/27 00:39:00;;;;;;;1.9;1.9;;;;;;;5.5;100.0;102280;;;;
2022/11/27 00:40:00;;;;;;;1.9;1.9;;;;;;;5.5;100.0;102290;;;;
2022/11/27 00:41:10;;;;;;;1.9;1.9;;;;;;;5.5;100.0;102290;;;;
2022/11/27 00:42:00;;;;;;;1.9;1.9;;;;;;;5.4;100.0;102280;;;;
2022/11/27 00:43:00;;;;;;;1.9;1.9;;;;;;;5.4;100.0;102280;;;;
2022/11/27 00:44:00;;;;;;;1.9;1.9;;;;;;;5.5;100.0;102270;;;;
2022/11/27 00:45:00;;;;;;;1.9;1.9;;;;;;;5.5;100.0;102270;;;;
2022/11/27 00:46:00;;;;;;;1.9;1.9;;;;;;;5.4;100.0;102270;;;;
2022/11/27 00:47:00;;;;;;;1.9;1.9;;;;;;;5.4;100.0;102270;;;;
2022/11/27 00:48:00;;;;;;;1.9;1.9;;;;;;;5.3;100.0;102260;;;;
2022/11/27 00:49:00;;;;;;;1.9;1.9;;;;;;;5.3;100.0;102260;;;;
2022/11/27 00:50:00;;;;;;;1.9;1.9;;;;;;;5.3;100.0;102270;;;;
2022/11/27 00:51:01;;;;;;;1.9;1.9;;;;;;;5.3;100.0;102270;;;;
2022/11/27 00:52:00;;;;;;;1.9;1.9;;;;;;;5.2;100.0;102270;;;;
2022/11/27 00:53:00;;;;;;;1.9;1.9;;;;;;;5.2;100.0;102270;;;;
2022/11/27 00:54:00;;;;;;;1.9;1.9;;;;;;;5.2;100.0;102270;;;;
2022/11/27 00:55:00;;;;;;;1.9;1.9;;;;;;;5.2;100.0;102270;;;;
2022/11/27 00:56:00;;;;;;;1.9;1.9;;;;;;;5.2;100.0;102270;;;;
2022/11/27 00:57:00;;;;;;;1.7;1.7;;;;;;;5.2;100.0;102270;;;;
2022/11/27 00:58:00;;;;;;;1.7;1.7;;;;;;;5.2;100.0;102270;;;;
2022/11/27 00:59:00;;;;;;;1.7;1.7;;;;;;;5.2;100.0;102270;;;;
2022/11/27 01:00:00;;;;;;;1.7;1.7;;;;;;;5.3;100.0;102270;;;;
2022/11/27 01:01:01;;;;;;;1.7;1.7;;;;;;;5.3;100.0;102270;;;;
2022/11/27 01:02:00;;;;;;;1.7;1.7;;;;;;;5.3;100.0;102260;;;;
2022/11/27 01:03:00;;;;;;;1.7;1.7;;;;;;;5.3;100.0;102260;;;;
2022/11/27 01:04:00;;;;;;;1.7;1.7;;;;;;;5.3;100.0;102260;;;;
2022/11/27 01:05:00;;;;;;;1.7;1.7;;;;;;;5.3;100.0;102260;;;;
2022/11/27 01:06:02;;;;;;;1.7;1.7;;;;;;;5.2;100.0;102260;;;;
2022/11/27 01:07:00;;;;;;;1.7;1.7;;;;;;;5.2;100.0;102260;;;;
2022/11/27 01:08:00;;;;;;;1.7;1.7;;;;;;;5.2;100.0;102260;;;;
2022/11/27 01:09:00;;;;;;;1.7;1.7;;;;;;;5.2;100.0;102260;;;;
2022/11/27 01:10:00;;;;;;;1.7;1.7;;;;;;;5.1;100.0;102260;;;;
2022/11/27 01:11:00;;;;;;;1.7;1.7;;;;;;;5.1;100.0;102260;;;;
2022/11/27 01:12:00;;;;;;;1.7;1.7;;;;;;;5.1;100.0;102260;;;;
2022/11/27 01:13:00;;;;;;;1.7;1.7;;;;;;;5.1;100.0;102260;;;;
2022/11/27 01:14:01;;;;;;;1.7;1.7;;;;;;;5.1;100.0;102250;;;;
2022/11/27 01:15:00;;;;;;;1.7;1.7;;;;;;;5.1;100.0;102250;;;;
2022/11/27 01:16:01;;;;;;;1.7;1.7;;;;;;;5.1;100.0;102250;;;;
2022/11/27 01:17:00;;;;;;;1.9;1.9;;;;;;;5.1;100.0;102250;;;;
2022/11/27 01:18:00;;;;;;;1.9;1.9;;;;;;;5.1;100.0;102240;;;;
2022/11/27 01:19:00;;;;;;;1.9;1.9;;;;;;;5.1;100.0;102240;;;;
2022/11/27 01:20:00;;;;;;;1.9;1.9;;;;;;;5.0;100.0;102240;;;;
2022/11/27 01:21:00;;;;;;;1.9;1.9;;;;;;;5.0;100.0;102240;;;;
2022/11/27 01:22:00;;;;;;;1.9;1.9;;;;;;;5.2;100.0;102240;;;;
2022/11/27 01:23:00;;;;;;;1.9;1.9;;;;;;;5.2;100.0;102240;;;;
2022/11/27 01:24:01;;;;;;;1.9;1.9;;;;;;;5.0;100.0;102240;;;;
2022/11/27 01:25:00;;;;;;;1.9;1.9;;;;;;;5.0;100.0;102240;;;;
2022/11/27 01:26:00;;;;;;;1.9;1.9;;;;;;;5.1;100.0;102240;;;;
2022/11/27 01:27:00;;;;;;;1.9;1.9;;;;;;;5.1;100.0;102240;;;;
2022/11/27 01:28:00;;;;;;;1.9;1.9;;;;;;;5.1;100.0;102230;;;;
2022/11/27 01:29:00;;;;;;;1.9;1.9;;;;;;;5.1;100.0;102230;;;;
2022/11/27 01:30:00;;;;;;;1.9;1.9;;;;;;;4.9;100.0;102230;;;;
2022/11/27 01:31:09;;;;;;;1.9;1.9;;;;;;;4.9;100.0;102230;;;;
2022/11/27 01:32:00;;;;;;;1.9;1.9;;;;;;;4.9;100.0;102230;;;;
2022/11/27 01:33:00;;;;;;;1.9;1.9;;;;;;;4.9;100.0;102230;;;;
2022/11/27 01:34:05;;;;;;;1.9;1.9;;;;;;;5.0;100.0;102240;;;;
2022/11/27 01:35:00;;;;;;;1.9;1.9;;;;;;;5.0;100.0;102240;;;;
2022/11/27 01:36:01;;;;;;;1.9;1.9;;;;;;;4.9;100.0;102240;;;;
2022/11/27 01:37:00;;;;;;;2.1;2.1;;;;;;;4.9;100.0;102240;;;;
2022/11/27 01:38:00;;;;;;;2.1;2.1;;;;;;;4.9;100.0;102240;;;;
2022/11/27 01:39:00;;;;;;;2.1;2.1;;;;;;;4.9;100.0;102240;;;;
2022/11/27 01:40:00;;;;;;;2.1;2.1;;;;;;;5.0;100.0;102230;;;;
2022/11/27 01:41:03;;;;;;;2.1;2.1;;;;;;;5.0;100.0;102230;;;;
2022/11/27 01:42:00;;;;;;;2.1;2.1;;;;;;;5.0;100.0;102220;;;;
2022/11/27 01:43:00;;;;;;;2.1;2.1;;;;;;;5.0;100.0;102220;;;;
2022/11/27 01:44:01;;;;;;;2.1;2.1;;;;;;;5.0;100.0;102220;;;;
2022/11/27 01:45:00;;;;;;;2.1;2.1;;;;;;;5.0;100.0;102220;;;;
2022/11/27 01:46:00;;;;;;;2.1;2.1;;;;;;;5.0;100.0;102210;;;;
2022/11/27 01:47:00;;;;;;;2.1;2.1;;;;;;;5.0;100.0;102210;;;;
2022/11/27 01:48:02;;;;;;;2.1;2.1;;;;;;;5.0;100.0;102210;;;;
2022/11/27 01:49:00;;;;;;;2.1;2.1;;;;;;;5.0;100.0;102210;;;;
2022/11/27 01:50:04;;;;;;;2.1;2.1;;;;;;;4.9;100.0;102210;;;;
2022/11/27 01:51:00;;;;;;;2.1;2.1;;;;;;;4.9;100.0;102210;;;;
2022/11/27 01:52:03;;;;;;;2.1;2.1;;;;;;;5.0;100.0;102220;;;;
2022/11/27 01:53:02;;;;;;;2.1;2.1;;;;;;;5.0;100.0;102220;;;;
2022/11/27 01:54:00;;;;;;;2.1;2.1;;;;;;;5.0;100.0;102210;;;;
2022/11/27 01:55:04;;;;;;;2.1;2.1;;;;;;;5.0;100.0;102210;;;;
2022/11/27 01:56:00;;;;;;;2.1;2.1;;;;;;;4.9;100.0;102220;;;;
2022/11/27 01:57:04;;;;;;;1.8;1.8;;;;;;;4.9;100.0;102220;;;;
2022/11/27 01:58:03;;;;;;;1.8;1.8;;;;;;;5.1;100.0;102210;;;;
2022/11/27 01:59:01;;;;;;;1.8;1.8;;;;;;;5.1;100.0;102210;;;;
2022/11/27 02:00:00;;;;;;;1.8;1.8;;;;;;;5.0;100.0;102210;;;;
2022/11/27 02:01:00;;;;;;;1.8;1.8;;;;;;;5.0;100.0;102210;;;;
2022/11/27 02:02:00;;;;;;;1.8;1.8;;;;;;;4.9;100.0;102200;;;;
2022/11/27 02:03:00;;;;;;;1.8;1.8;;;;;;;4.9;100.0;102200;;;;
2022/11/27 02:04:00;;;;;;;1.8;1.8;;;;;;;4.8;100.0;102190;;;;
2022/11/27 02:05:00;;;;;;;1.8;1.8;;;;;;;4.8;100.0;102190;;;;
2022/11/27 02:06:00;;;;;;;1.8;1.8;;;;;;;4.9;100.0;102190;;;;
2022/11/27 02:07:00;;;;;;;1.8;1.8;;;;;;;4.9;100.0;102190;;;;
2022/11/27 02:08:04;;;;;;;1.8;1.8;;;;;;;4.9;100.0;102180;;;;
2022/11/27 02:09:00;;;;;;;1.8;1.8;;;;;;;4.9;100.0;102180;;;;
2022/11/27 02:10:00;;;;;;;1.8;1.8;;;;;;;4.9;100.0;102170;;;;
2022/11/27 02:11:03;;;;;;;1.8;1.8;;;;;;;4.9;100.0;102170;;;;
2022/11/27 02:12:09;;;;;;;1.8;1.8;;;;;;;4.9;100.0;102170;;;;
2022/11/27 02:13:04;;;;;;;1.8;1.8;;;;;;;4.9;100.0;102170;;;;
2022/11/27 02:14:06;;;;;;;1.8;1.8;;;;;;;4.9;100.0;102160;;;;
2022/11/27 02:15:07;;;;;;;1.8;1.8;;;;;;;4.9;100.0;102160;;;;
2022/11/27 02:16:01;;;;;;;1.8;1.8;;;;;;;4.9;100.0;102150;;;;
2022/11/27 02:17:03;;;;;;;1.8;1.8;;;;;;;4.9;100.0;102150;;;;
2022/11/27 02:18:10;;;;;;;1.8;1.8;;;;;;;4.9;100.0;102140;;;;
2022/11/27 02:19:03;;;;;;;1.8;1.8;;;;;;;4.9;100.0;102140;;;;
2022/11/27 02:20:10;;;;;;;1.8;1.8;;;;;;;4.9;100.0;102140;;;;
2022/11/27 02:21:08;;;;;;;1.8;1.8;;;;;;;4.9;100.0;102140;;;;
2022/11/27 02:22:04;;;;;;;1.8;1.8;;;;;;;4.9;100.0;102130;;;;
2022/11/27 02:23:09;;;;;;;1.8;1.8;;;;;;;4.9;100.0;102130;;;;
2022/11/27 02:24:10;;;;;;;1.8;1.8;;;;;;;4.9;100.0;102120;;;;
2022/11/27 02:25:01;;;;;;;1.8;1.8;;;;;;;4.9;100.0;102120;;;;
2022/11/27 02:26:10;;;;;;;1.8;1.8;;;;;;;4.7;100.0;102120;;;;
2022/11/27 02:27:07;;;;;;;1.8;1.8;;;;;;;4.7;100.0;102120;;;;
2022/11/27 02:28:01;;;;;;;1.8;1.8;;;;;;;4.8;100.0;102120;;;;
2022/11/27 02:29:07;;;;;;;1.8;1.8;;;;;;;4.8;100.0;102120;;;;
2022/11/27 02:30:01;;;;;;;1.8;1.8;;;;;;;4.7;100.0;102120;;;;
2022/11/27 02:31:04;;;;;;;1.8;1.8;;;;;;;4.7;100.0;102120;;;;
2022/11/27 02:32:10;;;;;;;1.8;1.8;;;;;;;4.8;100.0;102120;;;;
2022/11/27 02:33:05;;;;;;;1.8;1.8;;;;;;;4.8;100.0;102120;;;;
2022/11/27 02:34:07;;;;;;;1.8;1.8;;;;;;;4.8;100.0;102120;;;;
2022/11/27 02:35:08;;;;;;;1.8;1.8;;;;;;;4.8;100.0;102120;;;;
2022/11/27 02:36:05;;;;;;;2.0;2.0;;;;;;;4.7;100.0;102110;;;;
2022/11/27 02:37:10;;;;;;;2.0;2.0;;;;;;;4.7;100.0;102110;;;;
2022/11/27 02:38:05;;;;;;;2.0;2.0;;;;;;;4.6;100.0;102110;;;;
2022/11/27 02:39:03;;;;;;;2.0;2.0;;;;;;;4.6;100.0;102110;;;;
2022/11/27 02:40:08;;;;;;;2.0;2.0;;;;;;;4.7;100.0;102120;;;;
2022/11/27 02:41:10;;;;;;;2.0;2.0;;;;;;;4.7;100.0;102120;;;;
2022/11/27 02:42:06;;;;;;;2.0;2.0;;;;;;;4.8;100.0;102120;;;;
2022/11/27 02:43:05;;;;;;;2.0;2.0;;;;;;;4.8;100.0;102120;;;;
2022/11/27 02:44:01;;;;;;;2.0;2.0;;;;;;;4.8;100.0;102120;;;;
2022/11/27 02:45:02;;;;;;;2.0;2.0;;;;;;;4.8;100.0;102120;;;;
2022/11/27 02:46:02;;;;;;;2.0;2.0;;;;;;;4.7;100.0;102130;;;;
2022/11/27 02:47:00;;;;;;;2.0;2.0;;;;;;;4.7;100.0;102130;;;;
2022/11/27 02:48:01;;;;;;;2.0;2.0;;;;;;;4.7;100.0;102120;;;;
2022/11/27 02:49:02;;;;;;;2.0;2.0;;;;;;;4.7;100.0;102120;;;;
2022/11/27 02:50:01;;;;;;;2.0;2.0;;;;;;;4.7;100.0;102130;;;;
2022/11/27 02:51:01;;;;;;;2.0;2.0;;;;;;;4.7;100.0;102130;;;;
2022/11/27 02:52:01;;;;;;;2.0;2.0;;;;;;;4.7;100.0;102120;;;;
2022/11/27 02:53:03;;;;;;;2.0;2.0;;;;;;;4.7;100.0;102120;;;;
2022/11/27 02:54:03;;;;;;;2.0;2.0;;;;;;;4.8;100.0;102120;;;;
2022/11/27 02:55:02;;;;;;;2.0;2.0;;;;;;;4.8;100.0;102120;;;;
2022/11/27 02:56:02;;;;;;;1.9;1.9;;;;;;;4.6;100.0;102130;;;;
2022/11/27 02:57:03;;;;;;;1.9;1.9;;;;;;;4.6;100.0;102130;;;;
2022/11/27 02:58:01;;;;;;;1.9;1.9;;;;;;;4.7;100.0;102120;;;;
2022/11/27 02:59:02;;;;;;;1.9;1.9;;;;;;;4.7;100.0;102120;;;;
2022/11/27 03:00:00;;;;;;;1.9;1.9;;;;;;;4.7;100.0;102120;;;;
2022/11/27 03:01:01;;;;;;;1.9;1.9;;;;;;;4.7;100.0;102120;;;;
2022/11/27 03:02:03;;;;;;;1.9;1.9;;;;;;;4.8;100.0;102110;;;;
2022/11/27 03:03:02;;;;;;;1.9;1.9;;;;;;;4.8;100.0;102110;;;;
2022/11/27 03:04:01;;;;;;;1.9;1.9;;;;;;;4.8;100.0;102110;;;;
2022/11/27 03:05:02;;;;;;;1.9;1.9;;;;;;;4.8;100.0;102110;;;;
2022/11/27 03:06:03;;;;;;;1.9;1.9;;;;;;;4.8;100.0;102110;;;;
2022/11/27 03:07:03;;;;;;;1.9;1.9;;;;;;;4.8;100.0;102110;;;;
2022/11/27 03:08:00;;;;;;;1.9;1.9;;;;;;;4.8;100.0;102120;;;;
2022/11/27 03:09:10;;;;;;;1.9;1.9;;;;;;;4.8;100.0;102120;;;;
2022/11/27 03:10:02;;;;;;;1.9;1.9;;;;;;;4.8;100.0;102120;;;;
2022/11/27 03:11:00;;;;;;;1.9;1.9;;;;;;;4.8;100.0;102120;;;;
2022/11/27 03:12:01;;;;;;;1.9;1.9;;;;;;;4.8;100.0;102110;;;;
2022/11/27 03:13:01;;;;;;;1.9;1.9;;;;;;;4.8;100.0;102110;;;;
2022/11/27 03:14:03;;;;;;;1.9;1.9;;;;;;;4.9;100.0;102120;;;;
2022/11/27 03:15:00;;;;;;;1.9;1.9;;;;;;;4.9;100.0;102120;;;;
2022/11/27 03:16:01;;;;;;;1.9;1.9;;;;;;;4.8;100.0;102120;;;;
2022/11/27 03:17:10;;;;;;;1.9;1.9;;;;;;;4.8;100.0;102120;;;;
2022/11/27 03:18:04;;;;;;;1.9;1.9;;;;;;;5.0;100.0;102120;;;;
2022/11/27 03:19:10;;;;;;;1.9;1.9;;;;;;;5.0;100.0;102120;;;;
2022/11/27 03:20:07;;;;;;;1.9;1.9;;;;;;;4.8;100.0;102110;;;;
2022/11/27 03:21:04;;;;;;;1.9;1.9;;;;;;;4.8;100.0;102110;;;;
2022/11/27 03:22:01;;;;;;;1.9;1.9;;;;;;;4.9;100.0;102110;;;;
2022/11/27 03:23:00;;;;;;;1.9;1.9;;;;;;;4.9;100.0;102110;;;;
2022/11/27 03:24:00;;;;;;;1.9;1.9;;;;;;;4.9;100.0;102110;;;;
2022/11/27 03:25:00;;;;;;;1.9;1.9;;;;;;;4.9;100.0;102110;;;;
2022/11/27 03:26:00;;;;;;;1.9;1.9;;;;;;;4.9;100.0;102110;;;;
2022/11/27 03:27:01;;;;;;;1.9;1.9;;;;;;;4.9;100.0;102110;;;;
2022/11/27 03:28:01;;;;;;;1.9;1.9;;;;;;;4.9;100.0;102100;;;;
2022/11/27 03:29:01;;;;;;;1.9;1.9;;;;;;;4.9;100.0;102100;;;;
2022/11/27 03:30:01;;;;;;;1.9;1.9;;;;;;;4.9;100.0;102100;;;;
2022/11/27 03:31:00;;;;;;;1.9;1.9;;;;;;;4.9;100.0;102100;;;;
2022/11/27 03:32:00;;;;;;;1.9;1.9;;;;;;;5.0;100.0;102090;;;;
2022/11/27 03:33:01;;;;;;;1.9;1.9;;;;;;;5.0;100.0;102090;;;;
2022/11/27 03:34:00;;;;;;;1.9;1.9;;;;;;;4.8;100.0;102090;;;;
2022/11/27 03:35:00;;;;;;;1.9;1.9;;;;;;;4.8;100.0;102090;;;;
2022/11/27 03:36:00;;;;;;;1.9;1.9;;;;;;;4.8;100.0;102100;;;;
2022/11/27 03:37:00;;;;;;;1.9;1.9;;;;;;;4.8;100.0;102100;;;;
2022/11/27 03:38:00;;;;;;;1.9;1.9;;;;;;;4.8;100.0;102100;;;;
2022/11/27 03:39:00;;;;;;;1.9;1.9;;;;;;;4.8;100.0;102100;;;;
2022/11/27 03:40:00;;;;;;;1.9;1.9;;;;;;;4.9;100.0;102100;;;;
2022/11/27 03:41:08;;;;;;;1.9;1.9;;;;;;;4.9;100.0;102100;;;;
2022/11/27 03:42:10;;;;;;;1.9;1.9;;;;;;;5.1;100.0;102100;;;;
2022/11/27 03:43:08;;;;;;;1.9;1.9;;;;;;;5.1;100.0;102100;;;;
2022/11/27 03:44:09;;;;;;;1.9;1.9;;;;;;;5.1;100.0;102100;;;;
2022/11/27 03:45:10;;;;;;;1.9;1.9;;;;;;;5.1;100.0;102100;;;;
2022/11/27 03:46:04;;;;;;;1.9;1.9;;;;;;;5.0;100.0;102100;;;;
2022/11/27 03:47:10;;;;;;;1.9;1.9;;;;;;;5.0;100.0;102100;;;;
2022/11/27 03:48:00;;;;;;;1.9;1.9;;;;;;;4.9;100.0;102100;;;;
2022/11/27 03:49:00;;;;;;;1.9;1.9;;;;;;;4.9;100.0;102100;;;;
2022/11/27 03:50:10;;;;;;;1.9;1.9;;;;;;;4.9;100.0;102090;;;;
2022/11/27 03:51:06;;;;;;;1.9;1.9;;;;;;;4.9;100.0;102090;;;;
2022/11/27 03:52:06;;;;;;;1.9;1.9;;;;;;;5.1;100.0;102090;;;;
2022/11/27 03:53:00;;;;;;;1.9;1.9;;;;;;;5.1;100.0;102090;;;;
2022/11/27 03:54:08;;;;;;;1.9;1.9;;;;;;;5.0;100.0;102080;;;;
2022/11/27 03:55:10;;;;;;;1.9;1.9;;;;;;;5.0;100.0;102080;;;;
2022/11/27 03:56:10;;;;;;;1.9;1.9;;;;;;;5.0;100.0;102080;;;;
2022/11/27 03:57:07;;;;;;;1.9;1.9;;;;;;;5.0;100.0;102080;;;;
2022/11/27 03:58:02;;;;;;;1.9;1.9;;;;;;;5.0;100.0;102080;;;;
2022/11/27 03:59:03;;;;;;;1.9;1.9;;;;;;;5.0;100.0;102080;;;;
2022/11/27 04:00:03;;;;;;;1.9;1.9;;;;;;;5.0;100.0;102080;;;;
2022/11/27 04:01:01;;;;;;;1.9;1.9;;;;;;;5.0;100.0;102080;;;;
2022/11/27 04:02:00;;;;;;;1.9;1.9;;;;;;;5.1;100.0;102070;;;;
2022/11/27 04:03:01;;;;;;;1.9;1.9;;;;;;;5.1;100.0;102070;;;;
2022/11/27 04:04:00;;;;;;;1.9;1.9;;;;;;;5.2;100.0;102080;;;;
2022/11/27 04:05:00;;;;;;;1.9;1.9;;;;;;;5.2;100.0;102080;;;;
2022/11/27 04:06:00;;;;;;;1.9;1.9;;;;;;;5.1;100.0;102080;;;;
2022/11/27 04:07:00;;;;;;;1.9;1.9;;;;;;;5.1;100.0;102080;;;;
2022/11/27 04:08:00;;;;;;;1.9;1.9;;;;;;;5.1;100.0;102080;;;;
2022/11/27 04:09:00;;;;;;;1.9;1.9;;;;;;;5.1;100.0;102080;;;;
2022/11/27 04:10:00;;;;;;;1.9;1.9;;;;;;;5.0;100.0;102080;;;;
2022/11/27 04:11:00;;;;;;;1.9;1.9;;;;;;;5.0;100.0;102080;;;;
2022/11/27 04:12:00;;;;;;;1.9;1.9;;;;;;;5.0;100.0;102070;;;;
2022/11/27 04:13:00;;;;;;;1.9;1.9;;;;;;;5.0;100.0;102070;;;;
2022/11/27 04:14:00;;;;;;;1.9;1.9;;;;;;;5.0;100.0;102070;;;;
2022/11/27 04:15:00;;;;;;;1.9;1.9;;;;;;;5.0;100.0;102070;;;;
2022/11/27 04:16:00;;;;;;;2.2;2.2;;;;;;;5.1;100.0;102080;;;;
2022/11/27 04:17:00;;;;;;;2.2;2.2;;;;;;;5.1;100.0;102080;;;;
2022/11/27 04:18:00;;;;;;;2.2;2.2;;;;;;;5.1;100.0;102070;;;;
2022/11/27 04:19:00;;;;;;;2.2;2.2;;;;;;;5.1;100.0;102070;;;;
2022/11/27 04:20:00;;;;;;;2.2;2.2;;;;;;;5.0;100.0;102070;;;;
2022/11/27 04:21:00;;;;;;;2.2;2.2;;;;;;;5.0;100.0;102070;;;;
2022/11/27 04:22:00;;;;;;;2.2;2.2;;;;;;;5.0;100.0;102080;;;;
2022/11/27 04:23:00;;;;;;;2.2;2.2;;;;;;;5.0;100.0;102080;;;;
2022/11/27 04:24:00;;;;;;;2.2;2.2;;;;;;;5.0;100.0;102080;;;;
2022/11/27 04:25:00;;;;;;;2.2;2.2;;;;;;;5.0;100.0;102080;;;;
2022/11/27 04:26:00;;;;;;;2.2;2.2;;;;;;;5.0;100.0;102070;;;;
2022/11/27 04:27:00;;;;;;;2.2;2.2;;;;;;;5.0;100.0;102070;;;;
2022/11/27 04:28:00;;;;;;;2.2;2.2;;;;;;;5.0;100.0;102070;;;;
2022/11/27 04:29:00;;;;;;;2.2;2.2;;;;;;;5.0;100.0;102070;;;;
2022/11/27 04:30:00;;;;;;;2.2;2.2;;;;;;;5.0;100.0;102070;;;;
2022/11/27 04:31:00;;;;;;;2.2;2.2;;;;;;;5.0;100.0;102070;;;;
2022/11/27 04:32:00;;;;;;;2.2;2.2;;;;;;;5.2;100.0;102080;;;;
2022/11/27 04:33:00;;;;;;;2.2;2.2;;;;;;;5.2;100.0;102080;;;;
2022/11/27 04:34:00;;;;;;;2.2;2.2;;;;;;;5.1;100.0;102080;;;;
2022/11/27 04:35:00;;;;;;;2.2;2.2;;;;;;;5.1;100.0;102080;;;;
2022/11/27 04:36:00;;;;;;;1.7;1.7;;;;;;;5.2;100.0;102080;;;;
2022/11/27 04:37:00;;;;;;;1.7;1.7;;;;;;;5.2;100.0;102080;;;;
2022/11/27 04:38:00;;;;;;;1.7;1.7;;;;;;;5.1;100.0;102080;;;;
2022/11/27 04:39:00;;;;;;;1.7;1.7;;;;;;;5.1;100.0;102080;;;;
2022/11/27 04:40:00;;;;;;;1.7;1.7;;;;;;;5.2;100.0;102080;;;;
2022/11/27 04:41:00;;;;;;;1.7;1.7;;;;;;;5.2;100.0;102080;;;;
2022/11/27 04:42:00;;;;;;;1.7;1.7;;;;;;;5.1;100.0;102080;;;;
2022/11/27 04:43:00;;;;;;;1.7;1.7;;;;;;;5.1;100.0;102080;;;;
2022/11/27 04:44:00;;;;;;;1.7;1.7;;;;;;;5.2;100.0;102080;;;;
2022/11/27 04:45:00;;;;;;;1.7;1.7;;;;;;;5.2;100.0;102080;;;;
2022/11/27 04:46:00;;;;;;;1.7;1.7;;;;;;;5.2;100.0;102080;;;;
2022/11/27 04:47:00;;;;;;;1.7;1.7;;;;;;;5.2;100.0;102080;;;;
2022/11/27 04:48:00;;;;;;;1.7;1.7;;;;;;;5.1;100.0;102080;;;;
2022/11/27 04:49:00;;;;;;;1.7;1.7;;;;;;;5.1;100.0;102080;;;;
2022/11/27 04:50:00;;;;;;;1.7;1.7;;;;;;;5.1;100.0;102080;;;;
2022/11/27 04:51:00;;;;;;;1.7;1.7;;;;;;;5.1;100.0;102080;;;;
2022/11/27 04:52:00;;;;;;;1.7;1.7;;;;;;;5.1;100.0;102070;;;;
2022/11/27 04:53:00;;;;;;;1.7;1.7;;;;;;;5.1;100.0;102070;;;;
2022/11/27 04:54:00;;;;;;;1.7;1.7;;;;;;;5.2;100.0;102080;;;;
2022/11/27 04:55:00;;;;;;;1.7;1.7;;;;;;;5.2;100.0;102080;;;;
2022/11/27 04:56:00;;;;;;;1.6;1.6;;;;;;;5.2;100.0;102070;;;;
2022/11/27 04:57:00;;;;;;;1.6;1.6;;;;;;;5.2;100.0;102070;;;;
2022/11/27 04:58:00;;;;;;;1.6;1.6;;;;;;;5.2;100.0;102060;;;;
2022/11/27 04:59:00;;;;;;;1.6;1.6;;;;;;;5.2;100.0;102060;;;;
2022/11/27 05:00:00;;;;;;;1.6;1.6;;;;;;;5.1;100.0;102060;;;;
2022/11/27 05:01:00;;;;;;;1.6;1.6;;;;;;;5.1;100.0;102060;;;;
2022/11/27 05:02:00;;;;;;;1.6;1.6;;;;;;;5.1;100.0;102050;;;;
2022/11/27 05:03:00;;;;;;;1.6;1.6;;;;;;;5.1;100.0;102050;;;;
2022/11/27 05:04:00;;;;;;;1.6;1.6;;;;;;;5.1;100.0;102040;;;;
2022/11/27 05:05:00;;;;;;;1.6;1.6;;;;;;;5.1;100.0;102040;;;;
2022/11/27 05:06:00;;;;;;;1.6;1.6;;;;;;;5.1;100.0;102040;;;;
2022/11/27 05:07:00;;;;;;;1.6;1.6;;;;;;;5.1;100.0;102040;;;;
2022/11/27 05:08:00;;;;;;;1.6;1.6;;;;;;;5.0;100.0;102030;;;;
2022/11/27 05:09:01;;;;;;;1.6;1.6;;;;;;;5.0;100.0;102030;;;;
2022/11/27 05:10:00;;;;;;;1.6;1.6;;;;;;;5.1;100.0;102030;;;;
2022/11/27 05:11:01;;;;;;;1.6;1.6;;;;;;;5.1;100.0;102030;;;;
2022/11/27 05:12:00;;;;;;;1.6;1.6;;;;;;;5.1;100.0;102040;;;;
2022/11/27 05:13:00;;;;;;;1.6;1.6;;;;;;;5.1;100.0;102040;;;;
2022/11/27 05:15:04;;;;;;;1.6;1.6;;;;;;;5.1;100.0;102040;;;;
2022/11/27 05:16:00;;;;;;;1.8;1.8;;;;;;;5.1;100.0;102040;;;;
2022/11/27 05:17:00;;;;;;;1.8;1.8;;;;;;;5.1;100.0;102040;;;;
2022/11/27 05:18:00;;;;;;;1.8;1.8;;;;;;;5.1;100.0;102030;;;;
2022/11/27 05:19:00;;;;;;;1.8;1.8;;;;;;;5.1;100.0;102030;;;;
2022/11/27 05:20:00;;;;;;;1.8;1.8;;;;;;;5.1;100.0;102030;;;;
2022/11/27 05:21:02;;;;;;;1.8;1.8;;;;;;;5.1;100.0;102030;;;;
2022/11/27 05:22:00;;;;;;;1.8;1.8;;;;;;;5.1;100.0;102020;;;;
2022/11/27 05:23:00;;;;;;;1.8;1.8;;;;;;;5.1;100.0;102020;;;;
2022/11/27 05:24:00;;;;;;;1.8;1.8;;;;;;;5.0;100.0;102020;;;;
2022/11/27 05:25:00;;;;;;;1.8;1.8;;;;;;;5.0;100.0;102020;;;;
2022/11/27 05:26:00;;;;;;;1.8;1.8;;;;;;;5.0;100.0;102020;;;;
2022/11/27 05:27:00;;;;;;;1.8;1.8;;;;;;;5.0;100.0;102020;;;;
2022/11/27 05:28:00;;;;;;;1.8;1.8;;;;;;;5.0;100.0;102010;;;;
2022/11/27 05:29:00;;;;;;;1.8;1.8;;;;;;;5.0;100.0;102010;;;;
2022/11/27 05:30:00;;;;;;;1.8;1.8;;;;;;;5.0;100.0;102010;;;;
2022/11/27 05:31:00;;;;;;;1.8;1.8;;;;;;;5.0;100.0;102010;;;;
2022/11/27 05:32:00;;;;;;;1.8;1.8;;;;;;;5.1;100.0;102010;;;;
2022/11/27 05:33:00;;;;;;;1.8;1.8;;;;;;;5.1;100.0;102010;;;;
2022/11/27 05:34:00;;;;;;;1.8;1.8;;;;;;;5.1;100.0;102010;;;;
2022/11/27 05:35:00;;;;;;;1.8;1.8;;;;;;;5.1;100.0;102010;;;;
2022/11/27 05:36:00;;;;;;;1.7;1.7;;;;;;;5.0;100.0;102010;;;;
2022/11/27 05:37:00;;;;;;;1.7;1.7;;;;;;;5.0;100.0;102010;;;;
2022/11/27 05:38:00;;;;;;;1.7;1.7;;;;;;;5.1;100.0;102010;;;;
2022/11/27 05:39:01;;;;;;;1.7;1.7;;;;;;;5.1;100.0;102010;;;;
2022/11/27 05:40:00;;;;;;;1.7;1.7;;;;;;;5.3;100.0;102010;;;;
2022/11/27 05:41:00;;;;;;;1.7;1.7;;;;;;;5.3;100.0;102010;;;;
2022/11/27 05:42:00;;;;;;;1.7;1.7;;;;;;;5.3;100.0;102000;;;;
2022/11/27 05:43:00;;;;;;;1.7;1.7;;;;;;;5.3;100.0;102000;;;;
2022/11/27 05:44:00;;;;;;;1.7;1.7;;;;;;;5.2;100.0;102000;;;;
2022/11/27 05:45:00;;;;;;;1.7;1.7;;;;;;;5.2;100.0;102000;;;;
2022/11/27 05:46:04;;;;;;;1.7;1.7;;;;;;;5.2;100.0;102000;;;;
2022/11/27 05:47:00;;;;;;;1.7;1.7;;;;;;;5.2;100.0;102000;;;;
2022/11/27 05:48:00;;;;;;;1.7;1.7;;;;;;;5.2;100.0;102000;;;;
2022/11/27 05:49:00;;;;;;;1.7;1.7;;;;;;;5.2;100.0;102000;;;;
2022/11/27 05:50:00;;;;;;;1.7;1.7;;;;;;;5.3;100.0;102000;;;;
2022/11/27 05:51:00;;;;;;;1.7;1.7;;;;;;;5.3;100.0;102000;;;;
2022/11/27 05:52:00;;;;;;;1.7;1.7;;;;;;;5.2;100.0;102000;;;;
2022/11/27 05:53:00;;;;;;;1.7;1.7;;;;;;;5.2;100.0;102000;;;;
2022/11/27 05:54:00;;;;;;;1.7;1.7;;;;;;;5.2;100.0;102000;;;;
2022/11/27 05:55:00;;;;;;;1.7;1.7;;;;;;;5.2;100.0;102000;;;;
2022/11/27 05:56:01;;;;;;;1.8;1.8;;;;;;;5.2;100.0;101990;;;;
2022/11/27 05:57:00;;;;;;;1.8;1.8;;;;;;;5.2;100.0;101990;;;;
2022/11/27 05:58:00;;;;;;;1.8;1.8;;;;;;;5.1;100.0;101990;;;;
2022/11/27 05:59:00;;;;;;;1.8;1.8;;;;;;;5.1;100.0;101990;;;;
2022/11/27 06:00:00;;;;;;;1.8;1.8;;;;;;;5.2;100.0;101990;;;;
2022/11/27 06:01:00;;;;;;;1.8;1.8;;;;;;;5.2;100.0;101990;;;;
2022/11/27 06:02:00;;;;;;;1.8;1.8;;;;;;;5.2;100.0;101990;;;;
2022/11/27 06:03:00;;;;;;;1.8;1.8;;;;;;;5.2;100.0;101990;;;;
2022/11/27 06:04:00;;;;;;;1.8;1.8;;;;;;;5.3;100.0;101980;;;;
2022/11/27 06:05:00;;;;;;;1.8;1.8;;;;;;;5.3;100.0;101980;;;;
2022/11/27 06:06:08;;;;;;;1.8;1.8;;;;;;;5.4;100.0;101970;;;;
2022/11/27 06:07:00;;;;;;;1.8;1.8;;;;;;;5.4;100.0;101970;;;;
2022/11/27 06:08:00;;;;;;;1.8;1.8;;;;;;;5.3;100.0;101970;;;;
2022/11/27 06:09:00;;;;;;;1.8;1.8;;;;;;;5.3;100.0;101970;;;;
2022/11/27 06:10:00;;;;;;;1.8;1.8;;;;;;;5.3;100.0;101970;;;;
2022/11/27 06:11:04;;;;;;;1.8;1.8;;;;;;;5.3;100.0;101970;;;;
2022/11/27 06:12:00;;;;;;;1.8;1.8;;;;;;;5.3;100.0;101970;;;;
2022/11/27 06:13:00;;;;;;;1.8;1.8;;;;;;;5.3;100.0;101970;;;;
2022/11/27 06:14:00;;;;;;;1.8;1.8;;;;;;;5.4;100.0;101970;;;;
2022/11/27 06:15:00;;;;;;;1.9;1.9;;;;;;;5.4;100.0;101970;;;;
2022/11/27 06:16:04;;;;;;;1.9;1.9;;;;;;;5.3;100.0;101970;;;;
2022/11/27 06:17:00;;;;;;;1.9;1.9;;;;;;;5.3;100.0;101970;;;;
2022/11/27 06:18:00;;;;;;;1.9;1.9;;;;;;;5.3;100.0;101980;;;;
2022/11/27 06:19:00;;;;;;;1.9;1.9;;;;;;;5.3;100.0;101980;;;;
2022/11/27 06:20:00;;;;;;;1.9;1.9;;;;;;;5.4;100.0;101970;;;;
2022/11/27 06:21:00;;;;;;;1.9;1.9;;;;;;;5.4;100.0;101970;;;;
2022/11/27 06:22:00;;;;;;;1.9;1.9;;;;;;;5.4;100.0;101980;;;;
2022/11/27 06:23:00;;;;;;;1.9;1.9;;;;;;;5.4;100.0;101980;;;;
2022/11/27 06:24:00;;;;;;;1.9;1.9;;;;;;;5.5;100.0;101970;;;;
2022/11/27 06:25:00;;;;;;;1.9;1.9;;;;;;;5.5;100.0;101970;;;;
2022/11/27 06:26:10;;;;;;;1.9;1.9;;;;;;;5.4;100.0;101970;;;;
2022/11/27 06:27:00;;;;;;;1.9;1.9;;;;;;;5.4;100.0;101970;;;;
2022/11/27 06:28:00;;;;;;;1.9;1.9;;;;;;;5.4;100.0;101970;;;;
2022/11/27 06:29:00;;;;;;;1.9;1.9;;;;;;;5.4;100.0;101970;;;;
2022/11/27 06:30:00;;;;;;;1.9;1.9;;;;;;;5.4;100.0;101970;;;;